createdAt,value
2023-01-25T00:01:44.347Z,64.73
2023-01-25T00:08:52.556Z,64.59
2023-01-25T00:15:54.195Z,64.73
2023-01-25T00:22:55.840Z,63.57
2023-01-25T00:29:57.579Z,63.68
2023-01-25T00:37:03.607Z,64.09
2023-01-25T00:44:05.424Z,64.02
2023-01-25T00:51:07.164Z,65.04
2023-01-25T00:58:09.061Z,64.56
2023-01-25T01:05:11.809Z,64.76
2023-01-25T01:12:13.849Z,65.62
2023-01-25T01:19:17.185Z,65.87
2023-01-25T01:26:21.577Z,66.69
2023-01-25T01:33:23.836Z,66.16
2023-01-25T01:40:25.794Z,65.73
2023-01-25T01:47:31.112Z,66.83
2023-01-25T01:54:38.825Z,66.58
2023-01-25T02:01:43.104Z,65.90
2023-01-25T02:08:44.982Z,66.20
2023-01-25T02:15:48.203Z,67.11
2023-01-25T02:23:12.928Z,66.28
2023-01-25T02:30:16.309Z,66.21
2023-01-25T02:37:18.886Z,66.40
2023-01-25T02:44:28.988Z,66.94
2023-01-25T02:51:33.749Z,66.16
2023-01-25T02:58:35.462Z,66.42
2023-01-25T03:05:37.255Z,66.68
2023-01-25T03:12:39.116Z,66.32
2023-01-25T03:19:41.298Z,66.34
2023-01-25T03:27:01.588Z,66.38
2023-01-25T03:34:09.503Z,67.08
2023-01-25T03:41:15.564Z,66.79
2023-01-25T03:48:20.101Z,67.36
2023-01-25T03:55:22.706Z,68.00
2023-01-25T04:02:24.491Z,67.19
2023-01-25T04:09:26.203Z,67.12
2023-01-25T04:16:31.460Z,67.11
2023-01-25T04:23:51.705Z,67.41
2023-01-25T04:30:54.740Z,67.89
2023-01-25T04:37:59.294Z,68.13
2023-01-25T04:45:08.662Z,68.58
2023-01-25T04:52:11.577Z,68.96
2023-01-25T04:59:14.855Z,69.05
2023-01-25T05:06:17.618Z,69.36
2023-01-25T05:13:19.667Z,68.72
2023-01-25T05:20:22.331Z,68.48
2023-01-25T05:27:24.204Z,69.20
2023-01-25T05:34:28.761Z,69.47
2023-01-25T05:41:30.697Z,70.00
2023-01-25T05:48:33.450Z,70.15
2023-01-25T05:55:36.710Z,68.92
2023-01-25T06:02:43.088Z,68.30
2023-01-25T06:09:50.284Z,68.92
2023-01-25T06:16:52.912Z,69.18
2023-01-25T06:24:14.007Z,68.98
2023-01-25T06:31:16.913Z,69.24
2023-01-25T06:38:18.552Z,70.24
2023-01-25T06:45:20.309Z,69.22
2023-01-25T06:52:21.931Z,69.79
2023-01-25T06:59:23.551Z,69.10
2023-01-25T07:06:25.925Z,70.17
2023-01-25T07:13:28.106Z,70.52
2023-01-25T07:20:29.774Z,68.37
2023-01-25T07:27:33.792Z,67.96
2023-01-25T07:34:35.372Z,69.65
2023-01-25T07:41:36.953Z,70.84
2023-01-25T07:48:39.194Z,70.08
2023-01-25T07:55:40.829Z,70.20
2023-01-25T08:02:43.169Z,70.41
2023-01-25T08:09:44.846Z,70.04
2023-01-25T08:16:46.428Z,70.96
2023-01-25T08:23:48.134Z,71.78
2023-01-25T08:30:57.452Z,70.83
2023-01-25T08:37:59.683Z,70.54
2023-01-25T08:45:02.649Z,71.45
2023-01-25T08:52:04.402Z,72.30
2023-01-25T08:59:06.105Z,72.48
2023-01-25T09:06:07.978Z,71.71
2023-01-25T09:13:09.590Z,72.36
2023-01-25T09:20:11.559Z,72.30
2023-01-25T09:27:13.292Z,73.63
2023-01-25T09:34:15.219Z,73.47
2023-01-25T09:41:49.355Z,73.21
2023-01-25T09:49:15.588Z,71.75
2023-01-25T09:56:23.748Z,72.88
2023-01-25T10:03:27.460Z,72.48
2023-01-25T10:10:39.917Z,72.64
2023-01-25T10:17:41.799Z,72.88
2023-01-25T10:24:55.732Z,72.85
2023-01-25T10:32:10.839Z,73.97
2023-01-25T10:39:12.633Z,74.07
2023-01-25T10:46:23.792Z,69.73
2023-01-25T10:53:29.485Z,70.14
2023-01-25T11:00:41.010Z,72.88
2023-01-25T11:07:42.667Z,72.87
2023-01-25T11:14:44.353Z,72.53
2023-01-25T11:21:53.369Z,73.50
2023-01-25T11:29:10.446Z,73.88
2023-01-25T11:36:25.164Z,73.82
2023-01-25T11:43:45.590Z,73.50
2023-01-25T11:50:55.883Z,73.85
2023-01-25T11:58:03.657Z,73.55
2023-01-25T12:05:26.729Z,73.14
2023-01-25T12:12:34.179Z,73.33
2023-01-25T12:19:44.993Z,73.98
2023-01-25T12:26:49.780Z,74.25
2023-01-25T12:33:56.725Z,73.78
2023-01-25T12:41:11.239Z,73.81
2023-01-25T12:48:23.745Z,72.61
2023-01-25T12:55:25.382Z,73.11
2023-01-25T13:02:47.038Z,73.87
2023-01-25T13:09:59.621Z,74.37
2023-01-25T13:17:12.657Z,74.75
2023-01-25T13:24:16.712Z,74.48
2023-01-25T13:31:51.527Z,75.52
2023-01-25T13:38:54.226Z,75.80
2023-01-25T13:45:55.941Z,75.04
2023-01-25T13:53:01.908Z,75.00
2023-01-25T14:00:10.649Z,73.65
2023-01-25T14:07:16.081Z,74.88
2023-01-25T14:14:40.939Z,75.50
2023-01-25T14:21:42.535Z,74.18
2023-01-25T14:28:51.261Z,74.94
2023-01-25T14:36:24.350Z,74.15
2023-01-25T14:43:26.786Z,74.92
2023-01-25T14:50:38.825Z,75.24
2023-01-25T14:57:40.783Z,75.35
2023-01-25T15:04:53.817Z,75.08
2023-01-25T15:12:00.008Z,74.47
2023-01-25T15:19:01.694Z,75.43
2023-01-25T15:26:15.222Z,77.09
2023-01-25T15:33:24.765Z,76.10
2023-01-25T15:40:26.375Z,76.09
2023-01-25T15:47:28.061Z,75.92
2023-01-25T15:54:29.750Z,76.63
2023-01-25T16:01:31.591Z,76.30
2023-01-25T16:08:34.603Z,76.08
2023-01-25T16:15:37.330Z,76.75
2023-01-25T16:22:38.913Z,78.07
2023-01-25T16:29:40.582Z,78.31
2023-01-25T16:36:42.362Z,77.00
2023-01-25T16:43:44.713Z,76.78
2023-01-25T16:50:46.369Z,76.58
2023-01-25T16:57:51.311Z,77.23
2023-01-25T17:04:52.999Z,76.15
2023-01-25T17:11:54.876Z,77.26
2023-01-25T17:19:04.487Z,77.43
2023-01-25T17:26:07.679Z,76.74
2023-01-25T17:33:09.532Z,76.99
2023-01-25T17:40:12.149Z,76.04
2023-01-25T17:47:13.983Z,76.74
2023-01-25T17:54:15.692Z,77.55
2023-01-25T18:01:19.180Z,77.14
2023-01-25T18:08:21.097Z,76.65
2023-01-25T18:15:23.599Z,77.27
2023-01-25T18:22:25.653Z,77.73
2023-01-25T18:29:54.435Z,77.51
2023-01-25T18:36:59.245Z,78.61
2023-01-25T18:44:00.852Z,77.63
2023-01-25T18:51:07.634Z,77.63
2023-01-25T18:58:12.231Z,76.48
2023-01-25T19:05:14.400Z,75.73
2023-01-25T19:12:16.073Z,76.95
2023-01-25T19:19:17.881Z,77.44
2023-01-25T19:26:20.366Z,76.42
2023-01-25T19:33:22.047Z,77.64
2023-01-25T19:40:24.943Z,76.17
2023-01-25T19:47:26.597Z,77.66
2023-01-25T19:54:28.366Z,75.83
2023-01-25T20:01:30.263Z,77.08
2023-01-25T20:08:32.142Z,77.38
2023-01-25T20:15:33.767Z,76.76
2023-01-25T20:22:35.729Z,77.02
2023-01-25T20:29:37.452Z,77.32
2023-01-25T20:36:39.622Z,77.02
2023-01-25T20:43:47.770Z,76.60
2023-01-25T20:50:49.612Z,76.57
2023-01-25T20:57:54.098Z,76.29
2023-01-25T21:04:56.243Z,76.71
2023-01-25T21:11:58.136Z,77.13
2023-01-25T21:19:05.236Z,75.83
2023-01-25T21:26:16.863Z,76.27
2023-01-25T21:33:18.713Z,76.29
2023-01-25T21:40:26.698Z,76.35
2023-01-25T21:47:32.354Z,76.58
2023-01-25T21:54:35.748Z,76.69
2023-01-25T22:01:41.800Z,76.82
2023-01-25T22:08:44.594Z,76.49
2023-01-25T22:15:46.252Z,76.36
2023-01-25T22:22:48.954Z,76.44
2023-01-25T22:29:50.655Z,75.98
2023-01-25T22:36:52.262Z,76.76
2023-01-25T22:43:54.984Z,76.91
2023-01-25T22:51:06.947Z,76.20
2023-01-25T22:58:09.838Z,76.34
2023-01-25T23:05:11.703Z,76.17
2023-01-25T23:12:13.407Z,75.99
2023-01-25T23:19:15.072Z,76.60
2023-01-25T23:26:17.536Z,76.73
2023-01-25T23:33:19.274Z,76.69
2023-01-25T23:40:21.019Z,77.32
2023-01-25T23:47:22.764Z,76.32
2023-01-25T23:54:26.911Z,77.13
